Time;durP1;ratioP1;P1;durP2;ratioP2;P2;SDS_P1;SDS_P2;PMS_P1;PMS_P2;Temp;Humidity;BMP_temperature;BMP_pressure;BME280_temperature;BME280_humidity;BME280_pressure;Samples;Min_cycle;Max_cycle;Signal;HPM_P1;HPM_P2
2024/01/20 00:01:59;;;;;;;20.63;15.57;;;-3.30;10.90;;;;;;4954924;28;20453;-70
2024/01/20 00:04:25;;;;;;;25.13;16.03;;;-3.50;10.10;;;;;;4953576;28;20549;-70
2024/01/20 00:06:50;;;;;;;21.37;15.33;;;-3.50;10.10;;;;;;4954798;28;20195;-71
2024/01/20 00:09:21;;;;;;;21.20;14.90;;;-3.50;10.50;;;;;;4954975;28;20514;-71
2024/01/20 00:11:47;;;;;;;21.27;15.07;;;-3.50;9.60;;;;;;4954562;28;20576;-70
2024/01/20 00:14:13;;;;;;;25.30;14.90;;;-3.60;8.70;;;;;;4954407;28;20292;-71
2024/01/20 00:16:38;;;;;;;24.37;15.03;;;-3.50;9.50;;;;;;4954965;28;20239;-69
2024/01/20 00:19:04;;;;;;;23.93;14.00;;;-3.50;9.80;;;;;;4954741;28;20181;-70
2024/01/20 00:21:30;;;;;;;20.33;15.40;;;-3.60;9.70;;;;;;4954513;28;20229;-71
2024/01/20 00:23:55;;;;;;;19.42;16.23;;;-3.60;10.30;;;;;;4954499;28;20182;-70
2024/01/20 00:26:21;;;;;;;23.00;14.03;;;-3.70;9.60;;;;;;4954507;28;20218;-71
2024/01/20 00:28:52;;;;;;;18.37;14.50;;;-3.60;9.40;;;;;;4954520;28;20221;-70
2024/01/20 00:31:20;;;;;;;30.50;15.32;;;-3.70;7.60;;;;;;4954917;28;20190;-70
2024/01/20 00:33:46;;;;;;;25.27;14.93;;;-3.70;7.50;;;;;;4954637;28;20182;-70
2024/01/20 00:36:11;;;;;;;23.37;15.63;;;-3.80;7.90;;;;;;4953756;29;20642;-70
2024/01/20 00:38:39;;;;;;;23.60;14.20;;;-3.90;8.60;;;;;;4954645;29;20182;-71
2024/01/20 00:41:05;;;;;;;22.83;13.43;;;-3.90;9.50;;;;;;4954916;28;20198;-71
2024/01/20 00:43:32;;;;;;;23.58;14.32;;;-3.90;10.70;;;;;;4952876;29;20217;-69
2024/01/20 00:45:58;;;;;;;23.08;14.80;;;-4.00;9.80;;;;;;4952770;29;20218;-70
2024/01/20 00:48:23;;;;;;;21.73;14.30;;;-4.00;9.20;;;;;;4952629;29;20210;-70
2024/01/20 00:50:50;;;;;;;28.00;18.67;;;-4.00;8.00;;;;;;4952654;28;20499;-70
2024/01/20 00:53:15;;;;;;;21.33;14.43;;;-4.00;8.10;;;;;;4954060;28;20256;-70
2024/01/20 00:55:41;;;;;;;20.57;15.50;;;-4.10;9.40;;;;;;4954048;28;20749;-70
2024/01/20 00:58:06;;;;;;;24.90;17.80;;;-4.20;11.00;;;;;;4953809;28;20188;-71
2024/01/20 01:00:32;;;;;;;25.30;16.80;;;-4.20;10.80;;;;;;4953749;28;20217;-70
2024/01/20 01:02:57;;;;;;;30.93;19.60;;;-4.20;11.00;;;;;;4953539;29;20178;-69
2024/01/20 01:05:23;;;;;;;24.30;19.07;;;-4.30;11.30;;;;;;4954039;28;20182;-69
2024/01/20 01:07:51;;;;;;;32.10;17.50;;;-4.20;13.00;;;;;;4954010;28;20329;-68
2024/01/20 01:10:20;;;;;;;29.40;18.27;;;-4.20;13.50;;;;;;4952800;29;20708;-69
2024/01/20 01:12:48;;;;;;;30.38;19.45;;;-4.10;14.30;;;;;;4953549;28;20204;-68
2024/01/20 01:15:13;;;;;;;26.45;17.48;;;-4.10;14.30;;;;;;4953721;28;20186;-67
2024/01/20 01:17:39;;;;;;;25.17;17.70;;;-4.00;14.40;;;;;;4954066;28;20196;-69
2024/01/20 01:20:05;;;;;;;27.20;16.57;;;-4.00;14.40;;;;;;4953958;28;20182;-68
2024/01/20 01:22:31;;;;;;;29.58;17.10;;;-3.90;14.50;;;;;;4953627;28;20285;-68
2024/01/20 01:24:56;;;;;;;29.43;17.10;;;-4.00;13.60;;;;;;4953462;28;20224;-67
2024/01/20 01:27:22;;;;;;;26.33;19.73;;;-4.10;13.50;;;;;;4953941;28;20257;-68
2024/01/20 01:29:48;;;;;;;29.23;16.93;;;;;;;;;;4957840;28;20188;-70
2024/01/20 01:32:13;;;;;;;34.25;19.83;;;-4.20;13.80;;;;;;4957623;28;20743;-67
2024/01/20 01:34:39;;;;;;;36.47;20.30;;;-4.20;15.10;;;;;;4957613;28;20169;-67
2024/01/20 01:37:04;;;;;;;23.53;16.97;;;-4.20;16.90;;;;;;4956553;28;20665;-69
2024/01/20 01:39:30;;;;;;;35.80;20.27;;;-4.30;17.80;;;;;;4958037;28;20177;-68
2024/01/20 01:41:56;;;;;;;34.80;20.07;;;-4.30;18.30;;;;;;4957574;28;20598;-68
2024/01/20 01:44:21;;;;;;;28.50;18.20;;;-4.30;17.20;;;;;;4957715;28;20188;-69
2024/01/20 01:46:47;;;;;;;32.77;20.93;;;-4.30;17.60;;;;;;4957585;28;20190;-69
2024/01/20 01:49:13;;;;;;;28.73;19.13;;;-4.30;16.40;;;;;;4957736;28;20521;-68
2024/01/20 01:51:39;;;;;;;32.45;19.67;;;-4.20;16.10;;;;;;4957184;28;20668;-68
2024/01/20 01:54:04;;;;;;;29.60;17.03;;;-4.20;15.80;;;;;;4956020;29;20214;-68
2024/01/20 01:56:30;;;;;;;31.00;20.50;;;-4.10;16.10;;;;;;4957184;28;20417;-68
2024/01/20 01:58:56;;;;;;;35.60;20.10;;;-4.20;15.80;;;;;;4957267;28;20233;-69
2024/01/20 02:01:22;;;;;;;38.20;21.45;;;-4.30;16.30;;;;;;4956834;28;20462;-69
2024/01/20 02:03:52;;;;;;;33.45;19.58;;;-4.40;16.80;;;;;;4957008;28;20204;-67
2024/01/20 02:06:25;;;;;;;36.70;20.45;;;-4.50;17.60;;;;;;4957241;28;20594;-68
2024/01/20 02:08:54;;;;;;;39.78;20.42;;;-4.60;18.00;;;;;;4957011;28;20189;-68
2024/01/20 02:11:23;;;;;;;36.55;21.23;;;-4.80;18.80;;;;;;4956906;28;20234;-68
2024/01/20 02:13:51;;;;;;;37.17;22.27;;;-4.90;20.30;;;;;;4956835;28;20177;-68
2024/01/20 02:16:18;;;;;;;36.75;21.52;;;-5.00;22.00;;;;;;4957033;28;20221;-67
2024/01/20 02:18:44;;;;;;;37.28;22.00;;;-5.00;23.00;;;;;;4956834;28;20178;-68
2024/01/20 02:21:10;;;;;;;34.63;21.23;;;-5.00;23.70;;;;;;4957237;28;20751;-69
2024/01/20 02:23:39;;;;;;;40.73;21.63;;;-5.00;23.80;;;;;;4957261;28;20417;-68
2024/01/20 02:26:05;;;;;;;34.22;20.65;;;-5.00;24.30;;;;;;4957059;28;20183;-69
2024/01/20 02:28:31;;;;;;;42.22;22.98;;;-5.10;23.80;;;;;;4956859;28;20571;-69
2024/01/20 02:30:56;;;;;;;41.67;18.67;;;-5.10;23.70;;;;;;4956560;28;20210;-68
2024/01/20 02:33:22;;;;;;;41.20;22.37;;;-5.10;24.00;;;;;;4955369;29;20185;-69
2024/01/20 02:35:53;;;;;;;45.13;20.43;;;-5.20;23.90;;;;;;4956625;28;20182;-68
2024/01/20 02:38:22;;;;;;;36.45;20.40;;;-5.30;24.10;;;;;;4955153;28;20636;-69
2024/01/20 02:40:56;;;;;;;35.78;22.60;;;-5.40;24.80;;;;;;4956359;28;20249;-69
2024/01/20 02:43:22;;;;;;;33.33;20.38;;;-5.40;25.70;;;;;;4954970;29;20619;-69
2024/01/20 02:45:51;;;;;;;31.33;19.77;;;-5.40;26.30;;;;;;4956513;28;20197;-67
2024/01/20 02:48:19;;;;;;;38.90;20.95;;;-5.50;26.60;;;;;;4956278;28;20761;-67
2024/01/20 02:50:45;;;;;;;34.78;18.90;;;-5.50;26.30;;;;;;4956341;28;20206;-68
2024/01/20 02:53:10;;;;;;;31.30;19.93;;;-5.50;26.00;;;;;;4956846;28;20174;-68
2024/01/20 02:55:36;;;;;;;34.47;19.57;;;-5.50;25.70;;;;;;4955041;29;20640;-69
2024/01/20 02:58:01;;;;;;;26.43;18.50;;;-5.50;25.70;;;;;;4955082;28;20556;-68
2024/01/20 03:00:28;;;;;;;31.63;20.30;;;-5.50;24.90;;;;;;4955991;28;20175;-69
2024/01/20 03:02:54;;;;;;;37.90;20.00;;;-5.60;24.70;;;;;;4956196;28;20671;-69
2024/01/20 03:05:20;;;;;;;41.08;23.42;;;-5.60;24.40;;;;;;4955234;28;20186;-69
2024/01/20 03:07:45;;;;;;;34.23;19.17;;;-5.60;22.90;;;;;;4956292;28;20210;-69
2024/01/20 03:10:11;;;;;;;28.73;18.17;;;-5.70;22.50;;;;;;4956179;28;20182;-69
2024/01/20 03:12:36;;;;;;;37.60;22.20;;;-5.70;22.20;;;;;;4956416;28;20190;-69
2024/01/20 03:15:02;;;;;;;30.43;19.13;;;-5.80;21.50;;;;;;4956237;28;20646;-69
2024/01/20 03:17:29;;;;;;;35.22;21.55;;;-5.90;21.40;;;;;;4956198;28;20639;-67
2024/01/20 03:19:55;;;;;;;32.33;18.63;;;-6.00;21.30;;;;;;4954614;29;20709;-70
2024/01/20 03:22:21;;;;;;;30.23;19.83;;;-6.00;21.40;;;;;;4955602;28;20194;-70
2024/01/20 03:24:47;;;;;;;36.07;20.60;;;-6.00;22.20;;;;;;4955626;28;20652;-69
2024/01/20 03:27:13;;;;;;;41.08;19.25;;;-6.00;23.00;;;;;;4954359;28;20462;-69
2024/01/20 03:29:39;;;;;;;32.45;20.67;;;-6.10;22.30;;;;;;4955644;28;20181;-69
2024/01/20 03:32:05;;;;;;;31.33;20.83;;;-6.10;23.20;;;;;;4955541;28;20752;-69
2024/01/20 03:34:31;;;;;;;35.70;21.23;;;-6.10;23.70;;;;;;4956021;28;20188;-69
2024/01/20 03:36:56;;;;;;;34.40;18.73;;;-6.10;23.60;;;;;;4955824;28;20174;-69
2024/01/20 03:39:25;;;;;;;32.23;20.23;;;-6.20;23.50;;;;;;4955555;28;20641;-69
2024/01/20 03:41:50;;;;;;;28.92;17.27;;;-6.20;23.70;;;;;;4956332;28;20621;-69
2024/01/20 03:44:16;;;;;;;30.37;18.27;;;-6.30;24.10;;;;;;4956529;29;20264;-68
2024/01/20 03:46:42;;;;;;;34.60;19.80;;;-6.30;24.30;;;;;;4956992;28;20177;-68
2024/01/20 03:49:07;;;;;;;27.30;19.13;;;-6.40;23.90;;;;;;4956130;28;20213;-68
2024/01/20 03:51:33;;;;;;;28.97;17.17;;;-6.50;24.00;;;;;;4955348;28;20198;-69
2024/01/20 03:53:58;;;;;;;33.00;16.43;;;-6.50;24.20;;;;;;4955983;28;20213;-69
2024/01/20 03:56:24;;;;;;;29.67;17.47;;;-6.60;25.00;;;;;;4956385;28;20439;-69
2024/01/20 03:58:52;;;;;;;26.73;16.70;;;-6.60;24.20;;;;;;4955864;28;20233;-68
2024/01/20 04:01:24;;;;;;;28.83;17.38;;;-6.60;24.60;;;;;;4955612;28;20689;-68
2024/01/20 04:03:52;;;;;;;28.42;18.58;;;-6.60;24.40;;;;;;4955299;28;20204;-69
2024/01/20 04:06:17;;;;;;;23.17;16.88;;;-6.60;24.70;;;;;;4955601;28;20236;-68
2024/01/20 04:08:43;;;;;;;33.63;17.57;;;-6.70;24.50;;;;;;4953819;29;20696;-68
2024/01/20 04:11:09;;;;;;;33.90;18.40;;;-6.70;24.50;;;;;;4955395;28;20228;-70
2024/01/20 04:13:34;;;;;;;32.20;18.60;;;-6.80;24.50;;;;;;4955347;28;20178;-69
2024/01/20 04:16:00;;;;;;;25.20;15.90;;;-6.80;24.80;;;;;;4956281;28;20540;-68
2024/01/20 04:18:25;;;;;;;23.33;17.03;;;-6.90;23.90;;;;;;4956215;28;20702;-68
2024/01/20 04:20:51;;;;;;;29.30;19.20;;;-6.90;24.20;;;;;;4955643;28;20211;-68
2024/01/20 04:23:17;;;;;;;35.92;18.67;;;-6.90;24.40;;;;;;4954935;28;20290;-69
2024/01/20 04:25:42;;;;;;;34.43;21.40;;;-6.90;24.80;;;;;;4954888;28;20631;-68
2024/01/20 04:28:08;;;;;;;28.50;19.13;;;-6.90;25.90;;;;;;4955596;28;20204;-69
2024/01/20 04:30:33;;;;;;;36.13;20.00;;;-6.90;25.40;;;;;;4956101;28;20172;-68
2024/01/20 04:32:59;;;;;;;39.13;22.63;;;-6.90;26.30;;;;;;4955708;28;20260;-69
2024/01/20 04:35:25;;;;;;;27.10;18.17;;;-6.90;26.40;;;;;;4955552;28;20210;-69
2024/01/20 04:37:50;;;;;;;33.63;18.47;;;-6.90;28.10;;;;;;4954780;28;20215;-68
2024/01/20 04:40:16;;;;;;;43.20;21.80;;;-6.90;27.30;;;;;;4954504;28;20182;-69
2024/01/20 04:42:41;;;;;;;30.80;17.33;;;-6.90;27.20;;;;;;4954642;28;20285;-68
2024/01/20 04:45:07;;;;;;;30.43;18.90;;;-7.00;28.20;;;;;;4954274;28;20186;-68
2024/01/20 04:47:33;;;;;;;35.08;18.92;;;-7.00;26.80;;;;;;4954033;28;20206;-69
2024/01/20 04:49:58;;;;;;;29.43;18.40;;;-7.00;27.10;;;;;;4953143;28;20750;-69
2024/01/20 04:52:24;;;;;;;29.70;19.13;;;-6.90;27.20;;;;;;4952827;28;20229;-68
2024/01/20 04:54:52;;;;;;;35.07;19.53;;;-6.90;27.50;;;;;;4953853;28;20683;-68
2024/01/20 04:57:19;;;;;;;34.58;19.35;;;-6.90;26.20;;;;;;4953983;28;20174;-68
2024/01/20 04:59:45;;;;;;;35.67;18.27;;;-6.80;27.50;;;;;;4952348;29;20189;-68
2024/01/20 05:02:10;;;;;;;37.40;18.60;;;-6.70;28.20;;;;;;4951347;28;20225;-68
2024/01/20 05:04:36;;;;;;;31.77;17.27;;;-6.70;28.20;;;;;;4952140;28;20185;-69
2024/01/20 05:07:02;;;;;;;31.37;16.93;;;-6.60;27.80;;;;;;4953843;28;20687;-70
2024/01/20 05:09:27;;;;;;;29.47;17.00;;;-6.60;27.10;;;;;;4953875;28;20711;-70
2024/01/20 05:11:53;;;;;;;25.67;17.10;;;-6.70;24.30;;;;;;4954279;28;20221;-68
2024/01/20 05:14:24;;;;;;;29.47;16.93;;;;;;;;;;4954049;28;20749;-70
2024/01/20 05:16:50;;;;;;;32.42;15.82;;;;;;;;;;4954122;28;20172;-69
2024/01/20 05:19:16;;;;;;;31.05;17.33;;;-6.90;44.20;;;;;;4953722;28;20185;-69
2024/01/20 05:21:41;;;;;;;29.83;16.97;;;-7.10;21.20;;;;;;4953911;28;20207;-68
2024/01/20 05:24:07;;;;;;;31.40;18.07;;;-7.10;21.70;;;;;;4953566;28;20252;-70
2024/01/20 05:26:33;;;;;;;31.93;15.90;;;-7.20;21.40;;;;;;4953955;28;20177;-69
2024/01/20 05:28:59;;;;;;;30.57;18.10;;;-7.20;21.90;;;;;;4953545;28;20205;-68
2024/01/20 05:31:31;;;;;;;29.77;16.57;;;-7.20;21.80;;;;;;4952646;28;20673;-68
2024/01/20 05:33:57;;;;;;;33.83;19.70;;;-7.20;21.90;;;;;;4953466;28;20171;-69
2024/01/20 05:36:23;;;;;;;32.45;19.17;;;-7.30;22.00;;;;;;4953569;28;20177;-69
2024/01/20 05:38:48;;;;;;;30.90;19.00;;;-7.30;22.30;;;;;;4953564;28;20672;-70
2024/01/20 05:41:14;;;;;;;34.03;18.07;;;-7.30;21.90;;;;;;4953503;28;20210;-70
2024/01/20 05:43:39;;;;;;;29.47;17.17;;;-7.40;22.80;;;;;;4953666;28;20483;-69
2024/01/20 05:46:06;;;;;;;26.13;16.90;;;-7.40;22.00;;;;;;4953863;28;20319;-69
2024/01/20 05:48:35;;;;;;;31.98;17.77;;;-7.40;22.40;;;;;;4953644;28;20573;-68
2024/01/20 05:51:01;;;;;;;24.40;16.27;;;-7.40;21.50;;;;;;4952369;28;20215;-69
2024/01/20 05:53:27;;;;;;;23.73;16.50;;;-7.40;22.00;;;;;;4953628;28;20189;-69
2024/01/20 05:55:53;;;;;;;29.20;18.08;;;-7.30;22.00;;;;;;4953402;28;20263;-70
2024/01/20 05:58:25;;;;;;;24.23;16.43;;;-7.30;21.10;;;;;;4954132;28;20216;-71
2024/01/20 06:00:53;;;;;;;28.77;17.40;;;-7.30;20.50;;;;;;4953303;28;20743;-70
2024/01/20 06:03:18;;;;;;;26.23;15.88;;;-7.40;20.40;;;;;;4952085;28;20213;-69
2024/01/20 06:05:44;;;;;;;33.33;16.60;;;-7.40;20.00;;;;;;4953494;28;20218;-67
2024/01/20 06:08:10;;;;;;;37.13;18.27;;;;;;;;;;4953486;28;20605;-68
2024/01/20 06:10:35;;;;;;;31.73;19.00;;;-7.50;17.50;;;;;;4953626;28;20180;-68
2024/01/20 06:13:01;;;;;;;27.17;16.33;;;-7.50;18.00;;;;;;4955742;28;20425;-70
2024/01/20 06:15:26;;;;;;;33.13;19.40;;;-7.60;17.80;;;;;;4958654;28;20176;-69
2024/01/20 06:17:52;;;;;;;23.20;15.47;;;-7.70;17.80;;;;;;4959206;28;20185;-68
2024/01/20 06:20:17;;;;;;;21.60;15.57;;;-7.70;18.60;;;;;;4958374;28;20285;-68
2024/01/20 06:22:43;;;;;;;28.67;16.53;;;-7.70;19.30;;;;;;4958315;28;20215;-67
2024/01/20 06:25:08;;;;;;;34.10;17.63;;;-7.70;19.30;;;;;;4957187;28;20191;-67
2024/01/20 06:27:34;;;;;;;21.50;14.97;;;-7.70;18.50;;;;;;4956895;28;20204;-69
2024/01/20 06:30:00;;;;;;;25.47;15.20;;;-7.80;17.20;;;;;;4957473;28;20442;-70
2024/01/20 06:32:25;;;;;;;26.57;17.00;;;-7.80;17.20;;;;;;4957376;28;20227;-70
2024/01/20 06:34:51;;;;;;;22.73;15.17;;;-7.90;17.70;;;;;;4957111;28;20197;-71
2024/01/20 06:37:16;;;;;;;24.77;15.70;;;-7.90;18.50;;;;;;4957137;28;20185;-68
2024/01/20 06:39:42;;;;;;;22.90;13.13;;;-8.00;18.70;;;;;;4957784;28;20283;-69
2024/01/20 06:42:11;;;;;;;30.33;16.03;;;-8.00;18.20;;;;;;4957662;28;20196;-68
2024/01/20 06:44:37;;;;;;;27.90;18.58;;;-7.90;18.80;;;;;;4957872;28;20195;-70
2024/01/20 06:47:03;;;;;;;27.35;15.10;;;-8.00;18.20;;;;;;4957111;28;20559;-69
2024/01/20 06:49:29;;;;;;;30.42;17.65;;;-8.00;18.10;;;;;;4958015;28;20247;-69
2024/01/20 06:51:58;;;;;;;27.63;17.13;;;-7.90;18.00;;;;;;4957671;28;20221;-70
2024/01/20 06:54:23;;;;;;;28.65;19.20;;;-7.90;18.50;;;;;;4957378;28;20180;-69
2024/01/20 06:56:49;;;;;;;30.17;18.43;;;-7.90;18.90;;;;;;4957056;28;20207;-69
2024/01/20 06:59:14;;;;;;;35.13;17.93;;;-7.80;18.90;;;;;;4956750;28;20185;-69
2024/01/20 07:01:40;;;;;;;28.23;16.80;;;-7.90;19.20;;;;;;4956912;28;20339;-70
2024/01/20 07:04:05;;;;;;;33.83;17.60;;;-7.90;20.10;;;;;;4954612;28;20197;-68
2024/01/20 07:06:31;;;;;;;33.30;17.10;;;-7.90;18.90;;;;;;4956303;28;20175;-69
2024/01/20 07:08:57;;;;;;;29.33;18.47;;;-7.90;19.30;;;;;;4955787;28;20278;-68
2024/01/20 07:11:25;;;;;;;32.20;17.60;;;-7.90;19.10;;;;;;4954799;28;20201;-70
2024/01/20 07:13:51;;;;;;;39.60;18.95;;;-7.90;20.10;;;;;;4956316;28;20240;-69
2024/01/20 07:16:19;;;;;;;32.10;18.50;;;-8.00;19.40;;;;;;4954785;28;20229;-69
2024/01/20 07:18:44;;;;;;;33.88;17.83;;;-8.00;19.70;;;;;;4954349;28;20219;-68
2024/01/20 07:21:10;;;;;;;30.73;20.50;;;-8.00;20.10;;;;;;4954797;28;20230;-70
2024/01/20 07:23:35;;;;;;;30.03;18.17;;;-8.00;19.50;;;;;;4955308;28;20288;-69
2024/01/20 07:26:01;;;;;;;30.27;19.83;;;-8.00;19.70;;;;;;4954556;28;20611;-70
2024/01/20 07:28:27;;;;;;;34.10;19.63;;;-8.10;18.70;;;;;;4954037;28;20262;-70
2024/01/20 07:30:55;;;;;;;28.03;15.87;;;-8.00;18.70;;;;;;4954542;28;20191;-69
2024/01/20 07:33:21;;;;;;;27.23;17.70;;;-8.00;19.90;;;;;;4954864;28;20470;-71
2024/01/20 07:35:47;;;;;;;35.17;19.80;;;-7.90;20.10;;;;;;4949845;29;20212;-68
2024/01/20 07:38:13;;;;;;;34.73;18.20;;;-7.90;20.10;;;;;;4950537;28;20548;-68
2024/01/20 07:40:39;;;;;;;29.30;18.52;;;-7.70;20.20;;;;;;4950263;28;20226;-69
2024/01/20 07:43:05;;;;;;;41.28;17.77;;;-7.70;19.80;;;;;;4950097;28;20604;-69
2024/01/20 07:45:31;;;;;;;30.50;17.77;;;-7.60;20.30;;;;;;4950456;28;20298;-68
2024/01/20 07:47:58;;;;;;;31.60;18.87;;;-7.60;20.30;;;;;;4950703;28;20263;-69
2024/01/20 07:50:23;;;;;;;32.70;19.38;;;-7.50;19.90;;;;;;4951153;28;20508;-71
2024/01/20 07:52:49;;;;;;;32.20;19.43;;;-7.40;20.40;;;;;;4950338;28;20288;-69
2024/01/20 07:55:15;;;;;;;33.70;17.97;;;-7.40;20.40;;;;;;4950436;28;20183;-68
2024/01/20 07:57:41;;;;;;;28.90;17.60;;;-7.20;21.40;;;;;;4951324;28;20726;-69
2024/01/20 08:00:08;;;;;;;33.10;20.50;;;-7.10;20.60;;;;;;4950685;28;20243;-69
2024/01/20 08:02:34;;;;;;;29.30;18.88;;;-7.10;20.70;;;;;;4950789;28;20719;-68
2024/01/20 08:05:00;;;;;;;28.80;17.50;;;-7.00;20.70;;;;;;4949730;28;20192;-69
2024/01/20 08:07:26;;;;;;;36.50;18.17;;;-7.00;20.70;;;;;;4950243;28;20894;-69
2024/01/20 08:09:57;;;;;;;31.43;18.10;;;-6.90;20.00;;;;;;4950340;28;20196;-69
2024/01/20 08:12:23;;;;;;;34.22;20.27;;;-6.90;19.30;;;;;;4949639;28;20210;-68
2024/01/20 08:14:49;;;;;;;38.27;21.87;;;-7.00;18.30;;;;;;4950192;28;20189;-69
2024/01/20 08:17:14;;;;;;;30.67;19.30;;;-7.00;18.80;;;;;;4950162;28;20416;-68
2024/01/20 08:19:40;;;;;;;33.73;19.10;;;-6.90;20.70;;;;;;4941295;28;20595;-68
2024/01/20 08:22:07;;;;;;;36.87;19.40;;;-6.70;20.90;;;;;;4931195;29;20241;-68
2024/01/20 08:24:33;;;;;;;30.63;19.27;;;-6.60;20.00;;;;;;4931502;29;20181;-70
2024/01/20 08:26:58;;;;;;;34.73;19.23;;;-6.50;20.80;;;;;;4937828;29;20237;-68
2024/01/20 08:29:24;;;;;;;31.10;19.53;;;-6.30;21.10;;;;;;4941367;29;20485;-70
2024/01/20 08:31:50;;;;;;;34.20;20.93;;;-6.00;23.00;;;;;;4937505;29;20221;-69
2024/01/20 08:34:15;;;;;;;38.73;20.67;;;-5.70;22.70;;;;;;4938236;29;20195;-69
2024/01/20 08:36:41;;;;;;;27.93;19.60;;;-5.60;21.40;;;;;;4935770;29;20439;-68
2024/01/20 08:39:07;;;;;;;26.40;18.70;;;-5.60;18.80;;;;;;4930680;29;20839;-69
2024/01/20 08:41:32;;;;;;;39.33;19.80;;;-5.60;18.60;;;;;;4944568;29;20697;-71
2024/01/20 08:43:58;;;;;;;31.10;18.50;;;-5.60;17.80;;;;;;4947449;29;20415;-69
2024/01/20 08:46:25;;;;;;;34.97;18.70;;;-5.70;17.40;;;;;;4946442;29;20625;-68
2024/01/20 08:48:51;;;;;;;35.08;21.75;;;-5.70;17.50;;;;;;4950498;28;20209;-69
2024/01/20 08:51:16;;;;;;;35.70;21.97;;;-5.80;17.40;;;;;;4949237;28;20202;-68
2024/01/20 08:53:42;;;;;;;33.57;20.53;;;-5.80;17.40;;;;;;4949666;28;20429;-68
2024/01/20 08:56:08;;;;;;;32.70;19.07;;;-5.90;17.30;;;;;;4950196;28;20196;-68
2024/01/20 08:58:33;;;;;;;33.27;19.33;;;-5.90;18.20;;;;;;4945476;28;20694;-68
2024/01/20 09:00:59;;;;;;;37.40;20.43;;;-5.90;18.60;;;;;;4950271;28;20515;-69
2024/01/20 09:03:27;;;;;;;37.87;21.37;;;-5.80;19.00;;;;;;4950053;28;20244;-68
2024/01/20 09:05:53;;;;;;;29.75;18.45;;;-5.80;17.40;;;;;;4949251;28;20249;-68
2024/01/20 09:08:18;;;;;;;37.70;21.30;;;-5.90;16.40;;;;;;4949745;28;20217;-69
2024/01/20 09:10:44;;;;;;;37.77;21.17;;;-5.90;19.00;;;;;;4949966;28;20584;-69
2024/01/20 09:13:09;;;;;;;36.37;20.23;;;-5.70;19.30;;;;;;4949569;28;20186;-69
2024/01/20 09:15:35;;;;;;;34.27;18.30;;;-5.60;20.40;;;;;;4949681;28;20257;-69
2024/01/20 09:18:01;;;;;;;31.70;19.53;;;-5.50;20.40;;;;;;4948228;28;20201;-69
2024/01/20 09:20:26;;;;;;;35.83;18.80;;;-5.50;21.70;;;;;;4953088;28;20213;-68
2024/01/20 09:22:52;;;;;;;31.37;18.13;;;-5.40;22.10;;;;;;4953374;28;20190;-69
2024/01/20 09:25:18;;;;;;;35.17;21.33;;;-5.30;23.20;;;;;;4951986;28;20291;-69
2024/01/20 09:27:43;;;;;;;40.53;23.47;;;-5.20;23.10;;;;;;4953363;28;20206;-67
2024/01/20 09:30:09;;;;;;;39.83;22.50;;;-5.20;22.20;;;;;;4952317;28;20178;-68
2024/01/20 09:32:35;;;;;;;38.80;21.90;;;-5.10;23.30;;;;;;4952239;28;20198;-68
2024/01/20 09:35:02;;;;;;;35.87;19.50;;;-5.00;22.80;;;;;;4951571;28;20188;-69
2024/01/20 09:37:29;;;;;;;34.20;19.55;;;-5.00;22.90;;;;;;4952078;28;20682;-69
2024/01/20 09:39:55;;;;;;;36.63;19.42;;;-4.90;22.90;;;;;;4952061;28;20185;-68
2024/01/20 09:42:22;;;;;;;33.08;17.38;;;-4.80;23.80;;;;;;4951826;28;20210;-69
2024/01/20 09:44:49;;;;;;;29.83;18.45;;;-4.80;23.40;;;;;;4953072;28;20190;-69
2024/01/20 09:47:14;;;;;;;36.92;21.77;;;-4.70;24.00;;;;;;4953379;28;20657;-68
2024/01/20 09:49:40;;;;;;;32.90;20.87;;;-4.60;24.20;;;;;;4957007;28;20252;-68
2024/01/20 09:52:14;;;;;;;37.23;20.47;;;-4.40;25.90;;;;;;4957025;28;20257;-68
2024/01/20 09:55:08;;;;;;;36.97;19.77;;;-4.20;25.50;;;;;;4957618;28;20367;-69
2024/01/20 09:57:36;;;;;;;33.58;22.27;;;-4.00;23.30;;;;;;4957142;28;20551;-68
2024/01/20 10:00:05;;;;;;;37.15;21.02;;;-3.70;24.90;;;;;;4957139;28;20182;-68
2024/01/20 10:02:34;;;;;;;34.00;20.02;;;-3.70;20.30;;;;;;4955932;28;20639;-68
2024/01/20 10:05:04;;;;;;;34.85;19.63;;;-3.80;17.60;;;;;;4957101;29;20182;-69
2024/01/20 10:07:30;;;;;;;30.83;17.15;;;-4.00;16.70;;;;;;4951376;29;20304;-72
2024/01/20 10:09:57;;;;;;;36.95;19.25;;;-4.10;17.00;;;;;;4952138;28;20191;-68
2024/01/20 10:12:26;;;;;;;43.60;23.67;;;-4.10;15.50;;;;;;4937900;29;20306;-68
2024/01/20 10:14:52;;;;;;;37.70;21.80;;;-4.20;16.70;;;;;;4939041;29;20214;-69
2024/01/20 10:17:18;;;;;;;37.05;19.45;;;-4.20;16.10;;;;;;4942669;28;20191;-68
2024/01/20 10:19:44;;;;;;;35.50;19.48;;;-4.20;16.10;;;;;;4938775;29;20621;-68
2024/01/20 10:22:11;;;;;;;27.23;17.90;;;-4.20;16.50;;;;;;4938398;29;20234;-68
2024/01/20 10:24:49;;;;;;;39.15;20.15;;;-4.10;16.60;;;;;;4937897;29;20249;-68
2024/01/20 10:27:18;;;;;;;28.63;17.95;;;-4.00;15.60;;;;;;4936806;29;20186;-68
2024/01/20 10:29:45;;;;;;;33.53;17.95;;;-3.80;16.60;;;;;;4946614;29;20244;-68
2024/01/20 10:32:10;;;;;;;36.47;19.30;;;-3.70;16.00;;;;;;4956489;28;20217;-68
2024/01/20 10:34:36;;;;;;;36.20;18.43;;;-3.60;16.20;;;;;;4956717;28;20668;-73
2024/01/20 10:37:11;;;;;;;29.50;18.50;;;-3.50;14.90;;;;;;4957202;29;20197;-70
2024/01/20 10:39:44;;;;;;;39.00;19.15;;;-3.40;14.80;;;;;;4957540;29;20268;-69
2024/01/20 10:42:15;;;;;;;30.65;19.40;;;-3.20;14.20;;;;;;4958176;28;20325;-68
2024/01/20 10:45:07;;;;;;;35.03;20.10;;;-3.10;12.10;;;;;;4957371;28;20183;-67
2024/01/20 10:47:37;;;;;;;31.23;18.88;;;-3.10;10.40;;;;;;4955345;28;20579;-69
2024/01/20 10:50:07;;;;;;;33.65;21.15;;;-3.00;9.40;;;;;;4945491;28;20470;-68
2024/01/20 10:52:34;;;;;;;27.92;19.10;;;-2.90;9.50;;;;;;4951119;29;20203;-67
2024/01/20 10:55:01;;;;;;;33.42;19.42;;;-2.90;6.80;;;;;;4956432;28;20277;-68
2024/01/20 10:57:30;;;;;;;31.25;19.90;;;-2.70;7.80;;;;;;4956788;28;20184;-67
2024/01/20 10:59:58;;;;;;;32.78;21.10;;;-2.50;6.80;;;;;;4955228;28;20181;-69
2024/01/20 11:02:30;;;;;;;36.30;22.63;;;-2.40;9.50;;;;;;4956201;28;20595;-67
2024/01/20 11:04:56;;;;;;;37.75;17.23;;;-2.30;8.80;;;;;;4956382;28;20186;-67
2024/01/20 11:07:22;;;;;;;30.70;18.83;;;-2.20;5.20;;;;;;4956167;28;20575;-68
2024/01/20 11:09:58;;;;;;;28.17;16.95;;;-2.20;5.00;;;;;;4955023;28;20420;-68
2024/01/20 11:12:29;;;;;;;28.63;17.20;;;-2.10;4.10;;;;;;4957258;28;20200;-69
2024/01/20 11:14:57;;;;;;;36.63;18.15;;;-1.90;3.60;;;;;;4954905;28;20184;-68
2024/01/20 11:17:26;;;;;;;32.80;19.65;;;-1.80;2.40;;;;;;4955939;28;20197;-69
2024/01/20 11:19:52;;;;;;;38.85;20.50;;;-1.70;1.60;;;;;;4955406;28;20181;-68
2024/01/20 11:22:34;;;;;;;31.07;16.97;;;-1.60;1.70;;;;;;4955601;28;20213;-68
2024/01/20 11:25:05;;;;;;;32.33;19.38;;;-1.60;2.30;;;;;;4955470;28;20178;-68
2024/01/20 11:27:42;;;;;;;30.67;17.67;;;-1.50;1.00;;;;;;4954387;29;20206;-69
2024/01/20 11:30:08;;;;;;;32.20;19.27;;;-1.40;1.00;;;;;;4956007;28;20257;-69
2024/01/20 11:32:34;;;;;;;33.30;18.40;;;-1.30;1.00;;;;;;4955831;28;20678;-69
2024/01/20 11:35:00;;;;;;;27.60;19.00;;;-1.20;1.00;;;;;;4954300;28;20209;-70
2024/01/20 11:37:27;;;;;;;26.63;16.97;;;-1.10;1.00;;;;;;4954940;28;20433;-69
2024/01/20 11:40:08;;;;;;;30.92;19.60;;;-1.00;1.00;;;;;;4955406;28;20436;-68
2024/01/20 11:42:35;;;;;;;31.20;19.15;;;-0.80;1.00;;;;;;4955446;28;20205;-69
2024/01/20 11:45:01;;;;;;;33.67;17.77;;;-0.80;1.00;;;;;;4955432;28;20193;-69
2024/01/20 11:47:31;;;;;;;23.63;17.85;;;-0.70;1.00;;;;;;4954295;28;20208;-69
2024/01/20 11:49:57;;;;;;;35.25;20.00;;;-0.60;1.00;;;;;;4956534;29;20194;-69
2024/01/20 11:52:27;;;;;;;27.05;17.42;;;-0.40;1.00;;;;;;4959565;28;20213;-68
2024/01/20 11:54:53;;;;;;;34.70;20.23;;;-0.30;1.00;;;;;;4958369;28;20174;-74
2024/01/20 11:57:24;;;;;;;30.47;18.03;;;-0.20;1.00;;;;;;4955908;28;20244;-68
2024/01/20 11:59:50;;;;;;;29.08;19.90;;;-0.10;1.00;;;;;;4955895;28;20920;-67
2024/01/20 12:02:16;;;;;;;35.40;19.87;;;0.10;1.00;;;;;;4955378;28;20272;-68
2024/01/20 12:04:42;;;;;;;34.95;21.05;;;0.10;1.00;;;;;;4954588;28;20521;-68
2024/01/20 12:07:08;;;;;;;32.63;20.48;;;0.00;1.00;;;;;;4954944;28;20178;-70
2024/01/20 12:09:34;;;;;;;28.47;19.37;;;0.00;1.00;;;;;;4947412;28;20237;-70
2024/01/20 12:12:01;;;;;;;27.53;17.20;;;0.00;1.00;;;;;;4952177;28;20457;-68
2024/01/20 12:14:27;;;;;;;32.40;19.13;;;0.00;1.00;;;;;;4953287;29;20422;-65
2024/01/20 12:16:57;;;;;;;25.00;16.95;;;0.10;1.00;;;;;;4954777;29;20677;-67
2024/01/20 12:19:22;;;;;;;34.67;21.83;;;0.20;1.00;;;;;;4953047;28;20185;-66
2024/01/20 12:21:49;;;;;;;30.73;18.83;;;0.20;1.00;;;;;;4953140;28;20225;-68
2024/01/20 12:24:15;;;;;;;25.83;16.73;;;0.10;1.00;;;;;;4954260;28;20265;-67
2024/01/20 12:26:41;;;;;;;30.40;18.80;;;0.30;1.00;;;;;;4952875;28;20197;-67
2024/01/20 12:29:07;;;;;;;35.03;18.50;;;0.30;1.00;;;;;;4954064;28;20642;-67